Time;durP1;ratioP1;P1;durP2;ratioP2;P2;SDS_P1;SDS_P2;PMS_P1;PMS_P2;Temp;Humidity;BMP_temperature;BMP_pressure;BME280_temperature;BME280_humidity;BME280_pressure;Samples;Min_cycle;Max_cycle;Signal;HPM_P1;HPM_P2
2023/12/25 00:02:04;;;;;;;4.22;1.40;;;;;;;;;;8221755;28;20305;-59
2023/12/25 00:06:04;;;;;;;7.00;1.55;;;;;;;;;;8221537;28;20033;-59
2023/12/25 00:10:05;;;;;;;4.23;1.60;;;;;;;;;;8220080;28;20101;-59
2023/12/25 00:14:05;;;;;;;9.25;1.73;;;;;;;;;;8215318;28;20549;-59
2023/12/25 00:18:05;;;;;;;8.67;2.03;;;;;;;;;;8219010;28;20056;-59
2023/12/25 00:22:06;;;;;;;2.63;1.17;;;;;;;;;;8223281;28;21233;-59
2023/12/25 00:26:06;;;;;;;6.47;1.38;;;;;;;;;;8218894;28;20524;-58
2023/12/25 00:30:07;;;;;;;6.93;1.80;;;;;;;;;;8218379;28;20022;-59
2023/12/25 00:34:08;;;;;;;7.70;1.63;;;;;;;;;;8216244;28;20022;-59
2023/12/25 00:38:08;;;;;;;6.20;1.90;;;;;;;;;;8215773;28;20491;-58
2023/12/25 00:42:08;;;;;;;5.72;1.60;;;;;;;;;;8222953;28;21095;-59
2023/12/25 00:46:08;;;;;;;3.40;2.10;;;;;;;;;;8243716;28;20042;-60
2023/12/25 00:50:09;;;;;;;7.07;1.83;;;;;;;;;;8237836;28;20165;-58
2023/12/25 00:54:10;;;;;;;5.10;1.50;;;;;;;;;;8243799;28;20041;-58
2023/12/25 00:58:10;;;;;;;9.57;2.25;;;;;;;;;;8244942;28;20018;-57
2023/12/25 01:02:10;;;;;;;4.40;1.88;;;;;;;;;;8240685;28;20135;-59
2023/12/25 01:06:10;;;;;;;6.18;2.05;;;;;;;;;;8246492;28;21064;-58
2023/12/25 01:10:11;;;;;;;5.18;1.83;;;;;;;;;;8243750;28;20141;-58
2023/12/25 01:14:11;;;;;;;8.45;1.88;;;;;;;;;;8243773;28;20851;-58
2023/12/25 01:18:11;;;;;;;7.28;1.98;;;;;;;;;;8243189;28;20030;-58
2023/12/25 01:22:11;;;;;;;8.47;1.67;;;;;;;;;;8240889;28;20964;-58
2023/12/25 01:26:13;;;;;;;4.20;1.30;;;;;;;;;;8242163;28;20319;-58
2023/12/25 01:30:13;;;;;;;7.25;1.90;;;;;;;;;;8239106;28;20941;-58
2023/12/25 01:34:13;;;;;;;5.63;1.88;;;;;;;;;;8239510;28;20104;-57
2023/12/25 01:38:13;;;;;;;9.48;1.67;;;;;;;;;;8233979;28;20034;-59
2023/12/25 01:42:15;;;;;;;5.47;1.63;;;;;;;;;;8233825;28;20061;-58
2023/12/25 01:46:15;;;;;;;6.53;1.70;;;;;;;;;;8238457;28;20054;-58
2023/12/25 01:50:16;;;;;;;4.88;1.40;;;;;;;;;;8244027;28;20022;-58
2023/12/25 01:54:16;;;;;;;3.17;1.40;;;;;;;;;;8221697;28;20040;-58
2023/12/25 01:58:16;;;;;;;5.85;1.30;;;;;;;;;;8220071;28;20033;-56
2023/12/25 02:02:18;;;;;;;7.28;1.63;;;;;;;;;;8220431;28;20034;-57
2023/12/25 02:06:18;;;;;;;6.55;1.60;;;;;;;;;;8224693;28;20049;-57
2023/12/25 02:10:27;;;;;;;6.05;1.65;;;;;;;;;;8219027;28;20022;-57
2023/12/25 02:14:27;;;;;;;6.55;1.30;;;;;;;;;;8226766;28;20580;-59
2023/12/25 02:18:27;;;;;;;3.75;1.20;;;;;;;;;;8225979;28;20076;-58
2023/12/25 02:22:27;;;;;;;2.83;0.90;;;;;;;;;;8225520;28;22329;-58
2023/12/25 02:26:28;;;;;;;3.58;1.00;;;;;;;;;;8225195;28;20196;-57
2023/12/25 02:30:28;;;;;;;1.40;0.88;;;;;;;;;;8224137;28;21084;-59
2023/12/25 02:34:28;;;;;;;0.82;0.80;;;;;;;;;;8227221;28;20034;-58
2023/12/25 02:38:29;;;;;;;2.35;0.90;;;;;;;;;;8222138;28;20340;-59
2023/12/25 02:42:29;;;;;;;1.65;0.75;;;;;;;;;;8222296;28;20037;-59
2023/12/25 02:46:29;;;;;;;1.17;0.80;;;;;;;;;;8221973;28;20041;-59
2023/12/25 02:50:29;;;;;;;0.70;0.60;;;;;;;;;;8225143;28;20034;-58
2023/12/25 02:54:29;;;;;;;3.60;1.10;;;;;;;;;;8224765;28;20026;-59
2023/12/25 02:58:30;;;;;;;1.15;0.60;;;;;;;;;;8224968;28;20091;-59
2023/12/25 03:02:30;;;;;;;0.60;0.60;;;;;;;;;;8218454;28;20057;-58
2023/12/25 03:06:30;;;;;;;0.70;0.70;;;;;;;;;;8227018;28;20978;-59
2023/12/25 03:10:30;;;;;;;0.80;0.70;;;;;;;;;;8227422;28;21948;-59
2023/12/25 03:14:30;;;;;;;1.33;0.60;;;;;;;;;;8224637;28;20032;-59
2023/12/25 03:18:31;;;;;;;1.60;0.73;;;;;;;;;;8224407;28;20162;-58
2023/12/25 03:22:31;;;;;;;2.05;0.70;;;;;;;;;;8224294;28;20273;-59
2023/12/25 03:26:33;;;;;;;1.58;0.60;;;;;;;;;;8221035;28;21861;-58
2023/12/25 03:30:33;;;;;;;0.40;0.40;;;;;;;;;;8224168;28;20054;-57
2023/12/25 03:34:44;;;;;;;1.25;0.70;;;;;;;;;;8221121;28;20021;-58
2023/12/25 03:38:46;;;;;;;0.60;0.60;;;;;;;;;;8221292;28;20507;-58
2023/12/25 03:42:46;;;;;;;1.35;0.70;;;;;;;;;;8220607;28;20033;-58
2023/12/25 03:46:47;;;;;;;0.60;0.60;;;;;;;;;;8222031;28;20728;-57
2023/12/25 03:50:47;;;;;;;0.65;0.52;;;;;;;;;;8227953;28;20018;-57
2023/12/25 03:54:47;;;;;;;0.45;0.45;;;;;;;;;;8226134;28;20471;-58
2023/12/25 03:58:48;;;;;;;0.50;0.50;;;;;;;;;;8225239;28;20171;-58
2023/12/25 04:02:48;;;;;;;0.50;0.50;;;;;;;;;;8222857;28;20034;-59
2023/12/25 04:06:48;;;;;;;0.50;0.50;;;;;;;;;;8225619;28;20030;-58
2023/12/25 04:10:48;;;;;;;1.05;0.50;;;;;;;;;;8224389;28;20280;-58
2023/12/25 04:14:48;;;;;;;0.63;0.40;;;;;;;;;;8227572;28;20557;-59
2023/12/25 04:18:49;;;;;;;0.40;0.40;;;;;;;;;;8223409;28;20305;-59
2023/12/25 04:22:49;;;;;;;0.50;0.50;;;;;;;;;;8225209;28;20038;-59
2023/12/25 04:26:50;;;;;;;0.60;0.50;;;;;;;;;;8222205;28;20046;-61
2023/12/25 04:30:50;;;;;;;0.88;0.40;;;;;;;;;;8219218;28;20048;-59
2023/12/25 04:34:50;;;;;;;0.30;0.30;;;;;;;;;;8223718;28;20182;-57
2023/12/25 04:38:50;;;;;;;1.00;0.40;;;;;;;;;;8226209;28;20154;-59
2023/12/25 04:42:50;;;;;;;0.40;0.40;;;;;;;;;;8224877;28;20026;-59
2023/12/25 04:46:50;;;;;;;0.30;0.30;;;;;;;;;;8226797;28;20045;-59
2023/12/25 04:50:51;;;;;;;0.30;0.30;;;;;;;;;;8223417;28;20030;-58
2023/12/25 04:54:51;;;;;;;0.38;0.38;;;;;;;;;;8221732;28;20112;-58
2023/12/25 04:58:51;;;;;;;0.30;0.30;;;;;;;;;;8225302;28;20034;-59
2023/12/25 05:02:51;;;;;;;0.40;0.40;;;;;;;;;;8225216;28;20053;-58
2023/12/25 05:06:52;;;;;;;0.30;0.30;;;;;;;;;;8220548;28;20095;-59
2023/12/25 05:10:52;;;;;;;0.40;0.40;;;;;;;;;;8220687;28;20022;-59
2023/12/25 05:14:52;;;;;;;0.40;0.40;;;;;;;;;;8226148;28;20060;-58
2023/12/25 05:18:52;;;;;;;1.25;0.40;;;;;;;;;;8223733;28;20141;-59
2023/12/25 05:22:53;;;;;;;0.35;0.35;;;;;;;;;;8226647;28;20029;-58
2023/12/25 05:26:53;;;;;;;0.38;0.38;;;;;;;;;;8239482;28;20107;-59
2023/12/25 05:30:53;;;;;;;0.30;0.30;;;;;;;;;;8242574;28;20052;-59
2023/12/25 05:34:53;;;;;;;0.30;0.30;;;;;;;;;;8239001;28;20026;-58
2023/12/25 05:38:54;;;;;;;0.30;0.30;;;;;;;;;;8241558;28;20454;-59
2023/12/25 05:42:54;;;;;;;0.30;0.30;;;;;;;;;;8239767;28;20017;-57
2023/12/25 05:46:54;;;;;;;0.30;0.30;;;;;;;;;;8229975;28;20046;-59
2023/12/25 05:50:54;;;;;;;0.30;0.30;;;;;;;;;;8230156;28;20144;-58
2023/12/25 05:54:55;;;;;;;0.30;0.30;;;;;;;;;;8228737;28;20053;-57
2023/12/25 05:58:55;;;;;;;0.30;0.30;;;;;;;;;;8229384;28;20057;-58
2023/12/25 06:02:55;;;;;;;0.30;0.30;;;;;;;;;;8228296;28;20387;-58
2023/12/25 06:06:55;;;;;;;1.30;0.30;;;;;;;;;;8227433;28;20033;-58
2023/12/25 06:10:56;;;;;;;0.20;0.20;;;;;;;;;;8229119;28;20172;-58
2023/12/25 06:14:57;;;;;;;0.30;0.30;;;;;;;;;;8228168;28;20033;-58
2023/12/25 06:18:58;;;;;;;0.20;0.20;;;;;;;;;;8225121;28;20034;-58
2023/12/25 06:22:58;;;;;;;0.30;0.30;;;;;;;;;;8228867;28;20151;-58
2023/12/25 06:26:58;;;;;;;0.40;0.40;;;;;;;;;;8226575;28;20157;-59
2023/12/25 06:30:58;;;;;;;0.30;0.30;;;;;;;;;;8226768;28;21184;-59
2023/12/25 06:34:58;;;;;;;0.20;0.20;;;;;;;;;;8224998;28;20148;-58
2023/12/25 06:39:00;;;;;;;0.40;0.40;;;;;;;;;;8226215;28;20528;-58
2023/12/25 06:43:00;;;;;;;0.30;0.30;;;;;;;;;;8224412;28;20060;-58
2023/12/25 06:47:00;;;;;;;0.40;0.40;;;;;;;;;;8219365;28;20072;-57
2023/12/25 06:51:00;;;;;;;0.30;0.30;;;;;;;;;;8223032;28;20030;-58
2023/12/25 06:55:01;;;;;;;0.30;0.30;;;;;;;;;;8224525;28;21926;-58
2023/12/25 06:59:01;;;;;;;0.30;0.30;;;;;;;;;;8225632;28;20424;-58
2023/12/25 07:03:01;;;;;;;0.40;0.40;;;;;;;;;;8224491;28;20041;-57
2023/12/25 07:07:02;;;;;;;0.40;0.40;;;;;;;;;;8225872;28;20323;-56
2023/12/25 07:11:02;;;;;;;0.30;0.30;;;;;;;;;;8227039;28;20616;-57
2023/12/25 07:15:02;;;;;;;0.50;0.50;;;;;;;;;;8227254;28;20096;-57
2023/12/25 07:19:03;;;;;;;0.80;0.80;;;;;;;;;;8226504;28;20053;-58
2023/12/25 07:23:03;;;;;;;0.70;0.70;;;;;;;;;;8227707;28;20371;-57
2023/12/25 07:27:04;;;;;;;0.80;0.80;;;;;;;;;;8228990;28;20030;-58
2023/12/25 07:31:04;;;;;;;0.80;0.80;;;;;;;;;;8224833;28;20277;-58
2023/12/25 07:35:04;;;;;;;0.60;0.60;;;;;;;;;;8225399;28;20034;-59
2023/12/25 07:39:05;;;;;;;0.40;0.40;;;;;;;;;;8218729;28;20044;-58
2023/12/25 07:43:10;;;;;;;0.30;0.30;;;;;;;;;;8225688;28;20399;-58
2023/12/25 07:47:10;;;;;;;1.60;0.40;;;;;;;;;;8227446;28;20449;-58
2023/12/25 07:51:10;;;;;;;0.30;0.30;;;;;;;;;;8227244;28;20108;-58
2023/12/25 07:55:10;;;;;;;1.35;0.40;;;;;;;;;;8225006;28;20036;-58
2023/12/25 07:59:11;;;;;;;0.30;0.30;;;;;;;;;;8227128;28;20026;-58
2023/12/25 08:03:11;;;;;;;0.30;0.30;;;;;;;;;;8228071;28;20053;-59
2023/12/25 08:07:11;;;;;;;0.40;0.40;;;;;;;;;;8226555;28;20025;-57
2023/12/25 08:11:12;;;;;;;2.35;1.80;;;;;;;;;;8223608;28;20124;-58
2023/12/25 08:15:14;;;;;;;0.77;0.77;;;;;;;;;;8227947;28;20025;-58
2023/12/25 08:19:15;;;;;;;3.95;3.33;;;;;;;;;;8223497;28;20057;-58
2023/12/25 08:23:15;;;;;;;1.98;1.63;;;;;;;;;;8221062;28;20881;-58
2023/12/25 08:27:15;;;;;;;0.40;0.40;;;;;;;;;;8225424;28;20041;-57
2023/12/25 08:31:15;;;;;;;0.98;0.98;;;;;;;;;;8225964;28;20067;-57
2023/12/25 08:35:16;;;;;;;0.33;0.33;;;;;;;;;;8222923;28;20145;-57
2023/12/25 08:39:16;;;;;;;0.30;0.30;;;;;;;;;;8226279;28;20305;-58
2023/12/25 08:43:16;;;;;;;0.38;0.38;;;;;;;;;;8222876;28;20281;-57
2023/12/25 08:47:16;;;;;;;0.30;0.30;;;;;;;;;;8221656;28;20053;-57
2023/12/25 08:51:17;;;;;;;0.40;0.40;;;;;;;;;;8222639;28;20028;-58
2023/12/25 08:55:17;;;;;;;0.40;0.40;;;;;;;;;;8226618;28;20601;-57
2023/12/25 08:59:17;;;;;;;1.10;0.40;;;;;;;;;;8237146;28;20779;-56
2023/12/25 09:03:17;;;;;;;0.30;0.30;;;;;;;;;;8235903;28;20034;-58
2023/12/25 09:07:20;;;;;;;0.35;0.30;;;;;;;;;;8232726;28;20026;-58
2023/12/25 09:11:20;;;;;;;0.30;0.30;;;;;;;;;;8233877;28;20117;-58
2023/12/25 09:15:20;;;;;;;0.40;0.40;;;;;;;;;;8237546;28;20060;-58
2023/12/25 09:19:21;;;;;;;0.30;0.30;;;;;;;;;;8236375;28;20022;-58
2023/12/25 09:23:22;;;;;;;0.30;0.30;;;;;;;;;;8239751;28;20280;-58
2023/12/25 09:27:22;;;;;;;0.30;0.30;;;;;;;;;;8238467;28;20021;-58
2023/12/25 09:31:22;;;;;;;0.33;0.33;;;;;;;;;;8238682;28;20054;-58
2023/12/25 09:35:23;;;;;;;0.30;0.30;;;;;;;;;;8236850;28;20118;-58
2023/12/25 09:39:23;;;;;;;0.68;0.68;;;;;;;;;;8235661;28;20041;-57
2023/12/25 09:43:23;;;;;;;0.40;0.40;;;;;;;;;;8240584;28;20025;-58
2023/12/25 09:47:23;;;;;;;0.30;0.30;;;;;;;;;;8233424;28;21331;-58
2023/12/25 09:51:28;;;;;;;0.40;0.40;;;;;;;;;;8237273;28;20280;-58
2023/12/25 09:55:28;;;;;;;0.50;0.50;;;;;;;;;;8234459;28;20282;-58
2023/12/25 09:59:30;;;;;;;0.85;0.77;;;;;;;;;;8225294;28;20652;-58
2023/12/25 10:03:32;;;;;;;0.77;0.60;;;;;;;;;;8226026;28;20061;-59
2023/12/25 10:07:34;;;;;;;0.38;0.38;;;;;;;;;;8223071;28;20029;-58
2023/12/25 10:11:35;;;;;;;0.30;0.30;;;;;;;;;;8222324;28;20117;-58
2023/12/25 10:15:35;;;;;;;0.40;0.40;;;;;;;;;;8230148;28;20129;-59
2023/12/25 10:19:47;;;;;;;0.40;0.40;;;;;;;;;;8227243;28;20137;-58
2023/12/25 10:23:48;;;;;;;0.90;0.90;;;;;;;;;;8228290;28;20028;-58
2023/12/25 10:27:49;;;;;;;0.77;0.77;;;;;;;;;;8226801;28;20022;-58
2023/12/25 10:31:49;;;;;;;0.53;0.53;;;;;;;;;;8225100;28;20145;-58
2023/12/25 10:36:10;;;;;;;0.50;0.50;;;;;;;;;;8227905;28;20029;-58
2023/12/25 10:40:18;;;;;;;0.50;0.50;;;;;;;;;;8224007;28;20030;-59
2023/12/25 10:44:19;;;;;;;0.47;0.47;;;;;;;;;;8223728;28;20530;-58
2023/12/25 10:48:20;;;;;;;0.95;0.90;;;;;;;;;;8224987;28;20514;-58
2023/12/25 10:52:20;;;;;;;0.60;0.60;;;;;;;;;;8221483;28;20026;-57
2023/12/25 10:56:22;;;;;;;0.40;0.40;;;;;;;;;;8224891;28;20025;-59
2023/12/25 11:00:22;;;;;;;0.47;0.40;;;;;;;;;;8229948;28;20030;-58
2023/12/25 11:04:23;;;;;;;0.52;0.52;;;;;;;;;;8228771;28;20029;-58
2023/12/25 11:08:23;;;;;;;0.40;0.40;;;;;;;;;;8225382;28;20031;-58
2023/12/25 11:12:24;;;;;;;0.60;0.60;;;;;;;;;;8225812;28;20191;-58
2023/12/25 11:16:24;;;;;;;0.70;0.70;;;;;;;;;;8225945;28;20281;-59
2023/12/25 11:20:24;;;;;;;0.80;0.80;;;;;;;;;;8220933;28;20057;-59
2023/12/25 11:24:28;;;;;;;1.17;0.50;;;;;;;;;;8224506;28;20844;-58
2023/12/25 11:28:31;;;;;;;1.40;1.30;;;;;;;;;;8227410;28;21305;-59
2023/12/25 11:32:31;;;;;;;0.50;0.50;;;;;;;;;;8222877;28;20049;-58
2023/12/25 11:36:31;;;;;;;0.40;0.40;;;;;;;;;;8225559;28;20033;-59
2023/12/25 11:40:40;;;;;;;0.30;0.30;;;;;;;;;;8228455;28;20073;-59
2023/12/25 11:44:41;;;;;;;0.35;0.35;;;;;;;;;;8229353;28;20054;-59
2023/12/25 11:48:42;;;;;;;0.35;0.35;;;;;;;;;;8225148;28;20490;-59
2023/12/25 11:52:42;;;;;;;0.40;0.40;;;;;;;;;;8227920;28;20030;-60
2023/12/25 11:56:43;;;;;;;0.40;0.40;;;;;;;;;;8229893;28;20022;-58
2023/12/25 12:00:43;;;;;;;0.40;0.40;;;;;;;;;;8227381;28;20525;-59
2023/12/25 12:04:44;;;;;;;0.60;0.60;;;;;;;;;;8231090;28;20018;-59
2023/12/25 12:08:44;;;;;;;1.20;0.60;;;;;;;;;;8228439;28;20080;-59
2023/12/25 12:12:44;;;;;;;0.68;0.60;;;;;;;;;;8225759;28;20066;-59
2023/12/25 12:16:45;;;;;;;0.70;0.65;;;;;;;;;;8230541;28;20037;-59
2023/12/25 12:20:45;;;;;;;0.50;0.50;;;;;;;;;;8222249;28;20100;-59
2023/12/25 12:24:45;;;;;;;1.75;0.40;;;;;;;;;;8226245;28;20022;-59
2023/12/25 12:28:45;;;;;;;0.40;0.40;;;;;;;;;;8228010;28;20544;-59
2023/12/25 12:32:46;;;;;;;0.50;0.50;;;;;;;;;;8224775;28;20103;-59
2023/12/25 12:36:59;;;;;;;0.40;0.40;;;;;;;;;;8229810;28;20034;-58
2023/12/25 12:40:59;;;;;;;0.50;0.47;;;;;;;;;;8220710;28;20311;-59
2023/12/25 12:45:00;;;;;;;0.63;0.40;;;;;;;;;;8233608;28;20041;-58
2023/12/25 12:49:01;;;;;;;0.45;0.45;;;;;;;;;;8246090;28;20042;-58
2023/12/25 12:53:01;;;;;;;0.70;0.70;;;;;;;;;;8246170;28;20026;-58
2023/12/25 12:57:02;;;;;;;0.50;0.50;;;;;;;;;;8243455;28;20056;-58
2023/12/25 13:01:03;;;;;;;0.40;0.40;;;;;;;;;;8246859;28;20486;-58
2023/12/25 13:05:04;;;;;;;0.40;0.40;;;;;;;;;;8252587;28;20348;-57
2023/12/25 13:09:05;;;;;;;0.40;0.40;;;;;;;;;;8247835;28;20022;-58
2023/12/25 13:13:05;;;;;;;0.50;0.50;;;;;;;;;;8249966;28;20032;-58
2023/12/25 13:17:05;;;;;;;0.40;0.40;;;;;;;;;;8246305;28;20284;-57
2023/12/25 13:21:05;;;;;;;0.50;0.50;;;;;;;;;;8247457;28;20010;-58
2023/12/25 13:25:07;;;;;;;0.40;0.40;;;;;;;;;;8254991;28;20022;-58
2023/12/25 13:29:07;;;;;;;0.50;0.50;;;;;;;;;;8255752;28;20022;-58
2023/12/25 13:33:08;;;;;;;1.40;0.50;;;;;;;;;;8251522;28;20046;-57
2023/12/25 13:37:08;;;;;;;0.50;0.50;;;;;;;;;;8227028;28;21058;-57
2023/12/25 13:41:09;;;;;;;0.50;0.50;;;;;;;;;;8222189;28;20087;-57
2023/12/25 13:45:09;;;;;;;0.68;0.68;;;;;;;;;;8225710;28;20028;-58
2023/12/25 13:49:09;;;;;;;0.60;0.60;;;;;;;;;;8228687;28;20496;-58
2023/12/25 13:53:09;;;;;;;0.60;0.60;;;;;;;;;;8225718;28;20030;-58
2023/12/25 13:57:10;;;;;;;0.47;0.47;;;;;;;;;;8231438;28;20065;-58
2023/12/25 14:01:11;;;;;;;7.47;5.20;;;;;;;;;;8228624;28;20040;-60
2023/12/25 14:05:12;;;;;;;1.75;1.60;;;;;;;;;;8229415;28;20030;-60
2023/12/25 14:09:12;;;;;;;0.80;0.80;;;;;;;;;;8230347;28;20421;-59
2023/12/25 14:13:13;;;;;;;0.68;0.68;;;;;;;;;;8226871;28;20018;-59
2023/12/25 14:17:13;;;;;;;1.27;1.17;;;;;;;;;;8226866;28;20042;-59
2023/12/25 14:21:13;;;;;;;3.58;2.25;;;;;;;;;;8228758;28;20030;-58
2023/12/25 14:25:14;;;;;;;1.38;1.27;;;;;;;;;;8225577;28;20029;-59
2023/12/25 14:29:14;;;;;;;0.60;0.60;;;;;;;;;;8230192;28;20128;-59
2023/12/25 14:33:16;;;;;;;0.40;0.40;;;;;;;;;;8227955;28;20743;-59
2023/12/25 14:37:16;;;;;;;0.65;0.65;;;;;;;;;;8220904;28;20034;-58
2023/12/25 14:41:16;;;;;;;0.43;0.43;;;;;;;;;;8214975;28;20056;-58
2023/12/25 14:45:17;;;;;;;0.50;0.50;;;;;;;;;;8224579;28;20192;-59
2023/12/25 14:49:17;;;;;;;0.60;0.60;;;;;;;;;;8215530;28;20117;-59
2023/12/25 14:53:17;;;;;;;0.50;0.50;;;;;;;;;;8223181;28;20033;-59
2023/12/25 14:57:19;;;;;;;1.17;0.60;;;;;;;;;;8221190;28;20037;-58
2023/12/25 15:01:19;;;;;;;0.40;0.40;;;;;;;;;;8234565;28;20119;-59
2023/12/25 15:05:19;;;;;;;1.17;0.80;;;;;;;;;;8219520;28;20057;-58
2023/12/25 15:09:19;;;;;;;1.50;1.40;;;;;;;;;;8217828;28;20018;-58
2023/12/25 15:13:20;;;;;;;0.70;0.70;;;;;;;;;;8220654;28;20022;-57
2023/12/25 15:17:20;;;;;;;1.05;0.85;;;;;;;;;;8218971;28;20060;-58
2023/12/25 15:21:20;;;;;;;0.80;0.80;;;;;;;;;;8214126;28;20030;-58
2023/12/25 15:25:21;;;;;;;0.98;0.90;;;;;;;;;;8217286;28;20022;-58
2023/12/25 15:29:21;;;;;;;0.50;0.50;;;;;;;;;;8209958;28;20026;-56
2023/12/25 15:33:21;;;;;;;2.83;0.60;;;;;;;;;;8208917;28;20111;-58
2023/12/25 15:37:24;;;;;;;1.37;0.60;;;;;;;;;;8214049;28;20038;-60
2023/12/25 15:41:25;;;;;;;0.60;0.60;;;;;;;;;;8212813;28;20347;-58
2023/12/25 15:45:25;;;;;;;0.50;0.50;;;;;;;;;;8213475;28;20315;-58
2023/12/25 15:49:26;;;;;;;0.60;0.60;;;;;;;;;;8205571;28;20287;-59
2023/12/25 15:53:26;;;;;;;0.60;0.60;;;;;;;;;;8210452;28;20022;-58
2023/12/25 15:57:26;;;;;;;0.60;0.60;;;;;;;;;;8212681;28;20030;-59
2023/12/25 16:01:27;;;;;;;0.50;0.50;;;;;;;;;;8211312;28;20050;-59
2023/12/25 16:05:27;;;;;;;0.50;0.50;;;;;;;;;;8213198;28;20037;-59
2023/12/25 16:09:28;;;;;;;0.50;0.50;;;;;;;;;;8214191;28;20022;-60
2023/12/25 16:13:28;;;;;;;0.63;0.60;;;;;;;;;;8208261;28;20677;-59
2023/12/25 16:17:28;;;;;;;0.50;0.50;;;;;;;;;;8211211;28;21622;-60
2023/12/25 16:21:28;;;;;;;0.60;0.60;;;;;;;;;;8206388;28;20029;-59
2023/12/25 16:25:29;;;;;;;0.77;0.77;;;;;;;;;;8212194;28;20605;-59
2023/12/25 16:29:29;;;;;;;0.60;0.55;;;;;;;;;;8213129;28;20025;-59
2023/12/25 16:33:30;;;;;;;0.60;0.60;;;;;;;;;;8208156;28;20038;-59
2023/12/25 16:37:30;;;;;;;0.75;0.75;;;;;;;;;;8206722;28;20056;-60
2023/12/25 16:41:31;;;;;;;0.70;0.70;;;;;;;;;;8210821;28;20072;-59
2023/12/25 16:45:31;;;;;;;0.60;0.60;;;;;;;;;;8212387;28;20044;-60
2023/12/25 16:49:31;;;;;;;0.60;0.60;;;;;;;;;;8207523;28;21242;-60
2023/12/25 16:53:31;;;;;;;0.52;0.52;;;;;;;;;;8213331;28;20033;-59
2023/12/25 16:57:32;;;;;;;0.50;0.50;;;;;;;;;;8229064;28;20141;-59
2023/12/25 17:01:32;;;;;;;0.60;0.60;;;;;;;;;;8243659;28;20307;-60
2023/12/25 17:05:32;;;;;;;1.52;0.77;;;;;;;;;;8243854;28;20280;-59
2023/12/25 17:09:33;;;;;;;0.55;0.55;;;;;;;;;;8241010;28;20025;-59
2023/12/25 17:13:33;;;;;;;0.60;0.60;;;;;;;;;;8244667;28;20945;-58
2023/12/25 17:17:34;;;;;;;0.60;0.60;;;;;;;;;;8243810;28;20072;-57
2023/12/25 17:21:35;;;;;;;0.75;0.68;;;;;;;;;;8244103;28;20021;-58
2023/12/25 17:25:35;;;;;;;0.82;0.70;;;;;;;;;;8243288;28;20721;-59
2023/12/25 17:29:35;;;;;;;0.60;0.60;;;;;;;;;;8214021;28;20092;-59
2023/12/25 17:33:36;;;;;;;0.60;0.60;;;;;;;;;;8216363;28;20030;-58
2023/12/25 17:37:37;;;;;;;0.73;0.73;;;;;;;;;;8215314;28;20022;-59
2023/12/25 17:41:37;;;;;;;1.05;0.77;;;;;;;;;;8214929;28;20022;-59
2023/12/25 17:45:37;;;;;;;0.60;0.60;;;;;;;;;;8218830;28;20080;-59
2023/12/25 17:49:40;;;;;;;0.80;0.80;;;;;;;;;;8215851;28;20284;-59
2023/12/25 17:53:40;;;;;;;0.63;0.63;;;;;;;;;;8215785;28;20270;-59
2023/12/25 17:57:41;;;;;;;1.03;0.80;;;;;;;;;;8216832;28;20030;-59
2023/12/25 18:01:41;;;;;;;0.80;0.80;;;;;;;;;;8213586;28;20038;-57
2023/12/25 18:05:41;;;;;;;2.63;0.70;;;;;;;;;;8215777;28;20148;-58
2023/12/25 18:09:41;;;;;;;0.87;0.87;;;;;;;;;;8216063;28;20266;-58
2023/12/25 18:13:42;;;;;;;0.93;0.88;;;;;;;;;;8217357;28;20387;-59
2023/12/25 18:17:42;;;;;;;0.80;0.80;;;;;;;;;;8219167;28;20037;-59
2023/12/25 18:21:43;;;;;;;0.75;0.73;;;;;;;;;;8217745;28;20030;-58
2023/12/25 18:25:43;;;;;;;8.10;1.00;;;;;;;;;;8215059;28;20030;-59
2023/12/25 18:29:43;;;;;;;0.70;0.70;;;;;;;;;;8213759;28;20029;-59
2023/12/25 18:33:43;;;;;;;1.07;0.97;;;;;;;;;;8217580;28;20069;-59
2023/12/25 18:37:43;;;;;;;0.88;0.88;;;;;;;;;;8237027;28;20038;-57
2023/12/25 18:41:44;;;;;;;0.60;0.60;;;;;;;;;;8235001;28;20058;-58
2023/12/25 18:45:44;;;;;;;0.90;0.60;;;;;;;;;;8239385;28;20083;-58
2023/12/25 18:49:44;;;;;;;0.50;0.50;;;;;;;;;;8239832;28;20041;-58
2023/12/25 18:53:45;;;;;;;0.70;0.70;;;;;;;;;;8237261;28;20030;-58
2023/12/25 18:57:45;;;;;;;0.68;0.68;;;;;;;;;;8242779;28;20189;-58
2023/12/25 19:01:45;;;;;;;0.70;0.70;;;;;;;;;;8240805;28;20046;-58
2023/12/25 19:05:45;;;;;;;0.60;0.60;;;;;;;;;;8240366;28;20030;-58
2023/12/25 19:09:46;;;;;;;0.77;0.70;;;;;;;;;;8242460;28;20022;-58
2023/12/25 19:13:46;;;;;;;0.68;0.68;;;;;;;;;;8244503;28;20291;-58
2023/12/25 19:17:46;;;;;;;0.60;0.60;;;;;;;;;;8226337;28;20026;-58
2023/12/25 19:21:46;;;;;;;0.80;0.70;;;;;;;;;;8213032;28;20087;-60
2023/12/25 19:25:47;;;;;;;0.60;0.60;;;;;;;;;;8212727;28;20720;-59
2023/12/25 19:29:47;;;;;;;0.70;0.70;;;;;;;;;;8214490;28;20033;-58
2023/12/25 19:33:47;;;;;;;3.50;0.70;;;;;;;;;;8212763;28;20152;-59
2023/12/25 19:37:47;;;;;;;0.60;0.60;;;;;;;;;;8214149;28;20046;-59
2023/12/25 19:41:48;;;;;;;0.70;0.70;;;;;;;;;;8214187;28;20160;-58
2023/12/25 19:45:48;;;;;;;0.80;0.80;;;;;;;;;;8211571;28;20038;-58
2023/12/25 19:49:48;;;;;;;0.63;0.63;;;;;;;;;;8208832;28;20034;-58
2023/12/25 19:53:50;;;;;;;0.77;0.77;;;;;;;;;;8212060;28;20087;-58
2023/12/25 19:57:50;;;;;;;0.57;0.57;;;;;;;;;;8213573;28;20033;-58
2023/12/25 20:01:50;;;;;;;0.77;0.60;;;;;;;;;;8210652;28;20045;-58
2023/12/25 20:05:51;;;;;;;0.67;0.67;;;;;;;;;;8210729;28;20288;-58
2023/12/25 20:09:51;;;;;;;1.55;0.70;;;;;;;;;;8213698;28;20287;-58
2023/12/25 20:13:51;;;;;;;0.70;0.70;;;;;;;;;;8214804;28;20018;-58
2023/12/25 20:17:51;;;;;;;0.75;0.75;;;;;;;;;;8211518;28;20344;-58
2023/12/25 20:21:52;;;;;;;0.73;0.60;;;;;;;;;;8208647;28;20033;-58
2023/12/25 20:25:52;;;;;;;0.50;0.50;;;;;;;;;;8212308;28;20140;-59
2023/12/25 20:29:52;;;;;;;0.80;0.70;;;;;;;;;;8211614;28;20033;-59
2023/12/25 20:33:52;;;;;;;0.60;0.52;;;;;;;;;;8206711;28;20033;-58
2023/12/25 20:37:52;;;;;;;0.43;0.43;;;;;;;;;;8210363;28;20026;-59
2023/12/25 20:41:53;;;;;;;0.60;0.60;;;;;;;;;;8213919;28;20272;-60
2023/12/25 20:45:53;;;;;;;0.60;0.60;;;;;;;;;;8214965;28;20514;-59
2023/12/25 20:49:53;;;;;;;0.60;0.50;;;;;;;;;;8211802;28;20281;-60
2023/12/25 20:53:57;;;;;;;0.80;0.65;;;;;;;;;;8212874;28;20036;-60
2023/12/25 20:57:57;;;;;;;0.60;0.60;;;;;;;;;;8215925;28;20032;-59
2023/12/25 21:01:57;;;;;;;0.60;0.60;;;;;;;;;;8215903;28;20037;-59
2023/12/25 21:05:57;;;;;;;0.82;0.60;;;;;;;;;;8214350;28;20096;-59
2023/12/25 21:09:58;;;;;;;0.93;0.70;;;;;;;;;;8210718;28;20094;-59
2023/12/25 21:13:58;;;;;;;0.60;0.60;;;;;;;;;;8209275;28;20030;-59
2023/12/25 21:17:58;;;;;;;1.17;0.77;;;;;;;;;;8211131;28;20034;-58
2023/12/25 21:22:00;;;;;;;0.80;0.80;;;;;;;;;;8210023;28;20446;-59
2023/12/25 21:26:00;;;;;;;0.70;0.70;;;;;;;;;;8216483;28;20030;-58
2023/12/25 21:30:00;;;;;;;0.77;0.67;;;;;;;;;;8209533;28;20037;-59
2023/12/25 21:34:00;;;;;;;0.90;0.90;;;;;;;;;;8214472;28;20034;-60
2023/12/25 21:38:01;;;;;;;1.02;0.93;;;;;;;;;;8218656;28;20030;-58
2023/12/25 21:42:03;;;;;;;0.90;0.90;;;;;;;;;;8219947;28;20131;-58
2023/12/25 21:46:03;;;;;;;0.70;0.70;;;;;;;;;;8221614;28;20289;-59
2023/12/25 21:50:04;;;;;;;0.70;0.70;;;;;;;;;;8217180;28;20019;-59
2023/12/25 21:54:04;;;;;;;1.08;0.75;;;;;;;;;;8213911;28;20010;-60
2023/12/25 21:58:05;;;;;;;0.90;0.90;;;;;;;;;;8217669;28;20025;-59
2023/12/25 22:02:05;;;;;;;1.00;0.90;;;;;;;;;;8216450;28;20125;-58
2023/12/25 22:06:05;;;;;;;1.87;1.00;;;;;;;;;;8215479;28;20092;-59
2023/12/25 22:10:06;;;;;;;2.15;0.80;;;;;;;;;;8221170;28;20072;-58
2023/12/25 22:14:06;;;;;;;1.05;0.80;;;;;;;;;;8221217;28;20030;-58
2023/12/25 22:18:06;;;;;;;0.80;0.80;;;;;;;;;;8223652;28;20191;-59
2023/12/25 22:22:06;;;;;;;1.43;0.80;;;;;;;;;;8225277;28;20487;-58
2023/12/25 22:26:06;;;;;;;0.70;0.70;;;;;;;;;;8217776;28;20227;-59
2023/12/25 22:30:07;;;;;;;0.70;0.70;;;;;;;;;;8221906;28;20126;-58
2023/12/25 22:34:07;;;;;;;0.70;0.70;;;;;;;;;;8221416;28;21297;-62
2023/12/25 22:38:07;;;;;;;0.70;0.70;;;;;;;;;;8223136;28;20284;-59
2023/12/25 22:42:08;;;;;;;0.63;0.63;;;;;;;;;;8222760;28;20026;-59
2023/12/25 22:46:08;;;;;;;0.70;0.70;;;;;;;;;;8224680;28;20358;-60
2023/12/25 22:50:09;;;;;;;1.10;0.80;;;;;;;;;;8237890;28;20032;-58
2023/12/25 22:54:10;;;;;;;0.60;0.60;;;;;;;;;;8249093;28;20033;-58
2023/12/25 22:58:10;;;;;;;5.10;0.70;;;;;;;;;;8245605;28;20057;-56
2023/12/25 23:02:10;;;;;;;1.05;0.68;;;;;;;;;;8223603;28;20044;-58
2023/12/25 23:06:10;;;;;;;0.95;0.57;;;;;;;;;;8223412;28;20484;-57
2023/12/25 23:10:11;;;;;;;0.57;0.57;;;;;;;;;;8219337;28;20790;-57
2023/12/25 23:14:14;;;;;;;1.27;0.63;;;;;;;;;;8224255;28;20029;-56
2023/12/25 23:18:14;;;;;;;0.47;0.47;;;;;;;;;;8225745;28;20041;-58
2023/12/25 23:22:15;;;;;;;0.40;0.40;;;;;;;;;;8253170;28;20037;-58
2023/12/25 23:26:16;;;;;;;1.55;0.60;;;;;;;;;;8253106;28;20395;-58
2023/12/25 23:30:16;;;;;;;1.00;0.60;;;;;;;;;;8253225;28;20036;-58
2023/12/25 23:34:19;;;;;;;0.40;0.40;;;;;;;;;;8249935;28;20446;-58
2023/12/25 23:38:19;;;;;;;0.40;0.40;;;;;;;;;;8248751;28;20115;-59
2023/12/25 23:42:20;;;;;;;0.40;0.40;;;;;;;;;;8246782;28;20448;-59
2023/12/25 23:46:20;;;;;;;0.80;0.57;;;;;;;;;;8247743;28;20044;-59
2023/12/25 23:50:20;;;;;;;0.40;0.40;;;;;;;;;;8244545;28;20026;-59
2023/12/25 23:54:20;;;;;;;0.50;0.50;;;;;;;;;;8247453;28;20029;-58
2023/12/25 23:58:21;;;;;;;0.60;0.60;;;;;;;;;;8239768;28;20018;-59
